createdAt,value
2023-04-07T00:02:07.146Z,91.50
2023-04-07T00:04:33.745Z,91.34
2023-04-07T00:07:00.531Z,91.14
2023-04-07T00:09:27.073Z,91.49
2023-04-07T00:11:53.622Z,91.67
2023-04-07T00:14:20.282Z,91.72
2023-04-07T00:16:46.749Z,91.94
2023-04-07T00:19:13.224Z,91.60
2023-04-07T00:21:39.855Z,91.48
2023-04-07T00:24:06.501Z,91.42
2023-04-07T00:26:33.039Z,91.50
2023-04-07T00:28:59.919Z,91.80
2023-04-07T00:31:26.838Z,92.12
2023-04-07T00:33:53.743Z,91.84
2023-04-07T00:36:20.682Z,92.03
2023-04-07T00:38:47.368Z,92.14
2023-04-07T00:41:13.848Z,92.56
2023-04-07T00:43:40.496Z,91.54
2023-04-07T00:46:07.345Z,91.56
2023-04-07T00:48:33.994Z,91.63
2023-04-07T00:51:00.575Z,91.88
2023-04-07T00:53:27.027Z,91.92
2023-04-07T00:55:53.656Z,91.67
2023-04-07T00:58:20.390Z,91.72
2023-04-07T01:00:56.508Z,91.69
2023-04-07T01:03:32.622Z,91.63
2023-04-07T01:06:03.815Z,91.39
2023-04-07T01:08:54.622Z,91.86
2023-04-07T01:11:33.046Z,91.55
2023-04-07T01:14:00.714Z,91.84
2023-04-07T01:16:31.435Z,91.63
2023-04-07T01:19:03.140Z,92.21
2023-04-07T01:21:34.188Z,92.15
2023-04-07T01:24:19.224Z,92.04
2023-04-07T01:26:47.246Z,92.13
2023-04-07T01:29:26.962Z,92.08
2023-04-07T01:31:55.911Z,91.75
2023-04-07T01:34:24.303Z,91.80
2023-04-07T01:36:51.466Z,91.50
2023-04-07T01:39:18.740Z,91.87
2023-04-07T01:41:45.523Z,92.21
2023-04-07T01:44:12.320Z,92.17
2023-04-07T01:46:38.897Z,92.30
2023-04-07T01:49:06.076Z,92.02
2023-04-07T01:51:33.323Z,92.13
2023-04-07T01:54:00.645Z,92.38
2023-04-07T01:56:27.335Z,92.15
2023-04-07T01:58:53.940Z,92.32
2023-04-07T02:01:20.580Z,92.79
2023-04-07T02:03:54.112Z,92.58
2023-04-07T02:06:23.422Z,92.54
2023-04-07T02:08:52.955Z,92.52
2023-04-07T02:11:22.104Z,92.83
2023-04-07T02:13:49.142Z,92.80
2023-04-07T02:16:17.156Z,92.42
2023-04-07T02:18:45.109Z,92.54
2023-04-07T02:21:12.394Z,92.41
2023-04-07T02:23:38.898Z,92.18
2023-04-07T02:26:05.519Z,92.23
2023-04-07T02:28:32.184Z,92.41
2023-04-07T02:30:58.684Z,92.46
2023-04-07T02:33:25.445Z,92.32
2023-04-07T02:35:52.030Z,92.53
2023-04-07T02:38:18.486Z,92.52
2023-04-07T02:40:44.935Z,92.37
2023-04-07T02:43:11.507Z,92.98
2023-04-07T02:45:37.989Z,92.58
2023-04-07T02:48:04.925Z,92.73
2023-04-07T02:50:31.558Z,92.66
2023-04-07T02:52:58.169Z,93.20
2023-04-07T02:55:24.657Z,92.71
2023-04-07T02:57:51.197Z,92.70
2023-04-07T03:00:17.833Z,92.66
2023-04-07T03:02:44.518Z,92.67
2023-04-07T03:05:11.361Z,92.38
2023-04-07T03:07:37.813Z,92.60
2023-04-07T03:10:04.534Z,92.45
2023-04-07T03:12:31.206Z,92.73
2023-04-07T03:14:57.653Z,92.60
2023-04-07T03:17:24.284Z,92.88
2023-04-07T03:19:51.915Z,92.86
2023-04-07T03:22:18.491Z,92.77
2023-04-07T03:24:44.944Z,92.37
2023-04-07T03:27:11.533Z,92.57
2023-04-07T03:29:38.311Z,92.44
2023-04-07T03:32:04.943Z,92.71
2023-04-07T03:34:31.440Z,92.60
2023-04-07T03:36:57.951Z,92.67
2023-04-07T03:39:24.498Z,93.04
2023-04-07T03:41:51.860Z,92.91
2023-04-07T03:44:18.317Z,92.81
2023-04-07T03:46:45.661Z,92.79
2023-04-07T03:49:12.165Z,92.94
2023-04-07T03:51:38.670Z,92.60
2023-04-07T03:54:05.718Z,92.42
2023-04-07T03:56:32.414Z,92.55
2023-04-07T03:58:58.881Z,92.83
2023-04-07T04:01:25.496Z,92.86
2023-04-07T04:03:52.514Z,92.98
2023-04-07T04:06:19.381Z,92.75
2023-04-07T04:08:45.861Z,92.64
2023-04-07T04:11:12.407Z,92.77
2023-04-07T04:13:38.928Z,92.87
2023-04-07T04:16:05.853Z,93.09
2023-04-07T04:18:32.399Z,93.18
2023-04-07T04:20:58.880Z,93.30
2023-04-07T04:23:25.381Z,93.29
2023-04-07T04:25:51.972Z,93.01
2023-04-07T04:28:18.552Z,92.92
2023-04-07T04:30:45.076Z,92.95
2023-04-07T04:33:11.763Z,92.96
2023-04-07T04:35:38.282Z,93.05
2023-04-07T04:38:04.742Z,92.83
2023-04-07T04:40:31.926Z,92.58
2023-04-07T04:42:58.430Z,92.76
2023-04-07T04:45:24.943Z,93.32
2023-04-07T04:47:51.591Z,93.08
2023-04-07T04:50:18.224Z,93.02
2023-04-07T04:52:44.776Z,92.57
2023-04-07T04:55:12.281Z,92.28
2023-04-07T04:57:40.726Z,92.69
2023-04-07T05:00:08.071Z,92.45
2023-04-07T05:02:34.658Z,92.43
2023-04-07T05:05:01.489Z,93.18
2023-04-07T05:07:28.105Z,93.13
2023-04-07T05:09:54.594Z,92.70
2023-04-07T05:12:21.753Z,92.79
2023-04-07T05:14:48.324Z,92.63
2023-04-07T05:17:14.836Z,92.98
2023-04-07T05:19:41.376Z,92.71
2023-04-07T05:22:07.916Z,93.02
2023-04-07T05:24:34.570Z,92.89
2023-04-07T05:27:01.846Z,92.87
2023-04-07T05:29:28.716Z,92.92
2023-04-07T05:31:55.623Z,92.79
2023-04-07T05:34:22.252Z,92.87
2023-04-07T05:36:49.027Z,92.58
2023-04-07T05:39:15.914Z,92.59
2023-04-07T05:41:42.429Z,92.50
2023-04-07T05:44:08.976Z,92.58
2023-04-07T05:46:35.673Z,92.50
2023-04-07T05:49:18.926Z,92.55
2023-04-07T05:51:48.822Z,92.37
2023-04-07T05:54:15.918Z,92.46
2023-04-07T05:56:42.509Z,92.35
2023-04-07T05:59:10.148Z,92.20
2023-04-07T06:01:36.731Z,92.28
2023-04-07T06:04:05.956Z,92.29
2023-04-07T06:06:32.903Z,92.30
2023-04-07T06:08:59.698Z,92.23
2023-04-07T06:11:27.463Z,92.08
2023-04-07T06:13:54.365Z,92.05
2023-04-07T06:16:21.314Z,92.34
2023-04-07T06:18:48.165Z,92.01
2023-04-07T06:21:14.868Z,92.09
2023-04-07T06:23:41.549Z,92.17
2023-04-07T06:26:12.078Z,92.18
2023-04-07T06:28:39.109Z,92.24
2023-04-07T06:31:06.490Z,92.33
2023-04-07T06:33:33.078Z,92.09
2023-04-07T06:35:59.895Z,92.20
2023-04-07T06:38:26.677Z,92.21
2023-04-07T06:40:53.331Z,92.14
2023-04-07T06:43:20.105Z,92.09
2023-04-07T06:45:46.899Z,92.02
2023-04-07T06:48:13.611Z,91.86
2023-04-07T06:50:40.294Z,91.95
2023-04-07T06:53:06.837Z,91.63
2023-04-07T06:55:33.456Z,91.62
2023-04-07T06:58:00.084Z,91.90
2023-04-07T07:00:30.110Z,91.45
2023-04-07T07:02:57.460Z,91.34
2023-04-07T07:05:24.433Z,91.09
2023-04-07T07:07:51.785Z,91.10
2023-04-07T07:10:20.472Z,91.15
2023-04-07T07:12:47.204Z,91.26
2023-04-07T07:15:13.922Z,90.86
2023-04-07T07:17:40.496Z,90.65
2023-04-07T07:20:07.835Z,91.21
2023-04-07T07:22:34.585Z,91.57
2023-04-07T07:25:01.357Z,91.17
2023-04-07T07:27:28.045Z,90.33
2023-04-07T07:29:54.796Z,90.70
2023-04-07T07:32:21.421Z,91.18
2023-04-07T07:34:48.080Z,91.16
2023-04-07T07:37:14.592Z,90.95
2023-04-07T07:39:41.319Z,91.13
2023-04-07T07:42:08.294Z,90.39
2023-04-07T07:44:35.196Z,90.63
2023-04-07T07:47:01.707Z,90.92
2023-04-07T07:49:28.372Z,90.42
2023-04-07T07:51:55.075Z,90.73
2023-04-07T07:54:21.711Z,90.38
2023-04-07T07:56:48.666Z,90.57
2023-04-07T07:59:16.624Z,90.80
2023-04-07T08:01:44.411Z,90.68
2023-04-07T08:04:11.494Z,90.74
2023-04-07T08:06:38.357Z,91.10
2023-04-07T08:09:06.172Z,90.40
2023-04-07T08:11:32.930Z,90.69
2023-04-07T08:13:59.565Z,89.96
2023-04-07T08:16:27.021Z,90.31
2023-04-07T08:18:53.941Z,90.83
2023-04-07T08:21:21.047Z,90.72
2023-04-07T08:23:48.144Z,91.07
2023-04-07T08:26:15.026Z,91.16
2023-04-07T08:28:41.646Z,90.80
2023-04-07T08:31:08.218Z,91.10
2023-04-07T08:33:34.917Z,90.27
2023-04-07T08:36:01.454Z,89.51
2023-04-07T08:38:28.073Z,89.56
2023-04-07T08:41:09.133Z,89.25
2023-04-07T08:43:39.480Z,88.90
2023-04-07T08:46:06.457Z,89.67
2023-04-07T08:48:34.295Z,89.71
2023-04-07T08:51:08.510Z,89.18
2023-04-07T08:53:44.569Z,88.60
2023-04-07T08:56:14.728Z,88.97
2023-04-07T08:58:41.461Z,89.06
2023-04-07T09:01:09.356Z,89.04
2023-04-07T09:03:36.485Z,88.87
2023-04-07T09:06:04.775Z,88.47
2023-04-07T09:08:31.400Z,88.18
2023-04-07T09:10:58.220Z,89.08
2023-04-07T09:13:25.346Z,88.37
2023-04-07T09:15:52.134Z,89.03
2023-04-07T09:18:19.265Z,88.56
2023-04-07T09:20:56.972Z,88.56
2023-04-07T09:23:37.614Z,88.26
2023-04-07T09:26:27.415Z,88.75
2023-04-07T09:28:56.441Z,87.80
2023-04-07T09:31:23.634Z,88.58
2023-04-07T09:33:50.598Z,88.43
2023-04-07T09:36:17.405Z,88.34
2023-04-07T09:38:45.758Z,88.75
2023-04-07T09:41:14.414Z,88.23
2023-04-07T09:43:44.782Z,88.07
2023-04-07T09:46:16.359Z,88.49
2023-04-07T09:48:44.969Z,88.04
2023-04-07T09:51:12.777Z,88.20
2023-04-07T09:53:45.375Z,88.46
2023-04-07T09:56:12.524Z,88.32
2023-04-07T09:58:40.894Z,87.98
2023-04-07T10:01:09.924Z,87.79
2023-04-07T10:03:37.301Z,87.67
2023-04-07T10:06:06.356Z,88.23
2023-04-07T10:08:35.859Z,87.63
2023-04-07T10:11:04.610Z,87.47
2023-04-07T10:13:32.185Z,87.24
2023-04-07T10:15:59.618Z,87.55
2023-04-07T10:18:31.674Z,87.35
2023-04-07T10:21:03.472Z,87.81
2023-04-07T10:23:58.117Z,87.54
2023-04-07T10:26:28.198Z,86.91
2023-04-07T10:29:00.384Z,85.53
2023-04-07T10:31:27.434Z,85.67
2023-04-07T10:33:54.956Z,86.41
2023-04-07T10:36:22.142Z,86.11
2023-04-07T10:39:11.807Z,85.75
2023-04-07T10:41:41.875Z,85.71
2023-04-07T10:44:09.890Z,85.80
2023-04-07T10:46:56.828Z,85.54
2023-04-07T10:49:23.390Z,85.87
2023-04-07T10:52:11.821Z,85.66
2023-04-07T10:54:42.886Z,86.18
2023-04-07T10:57:12.255Z,85.53
2023-04-07T11:00:04.917Z,84.83
2023-04-07T11:02:33.056Z,84.04
2023-04-07T11:05:00.014Z,83.97
2023-04-07T11:07:44.308Z,84.11
2023-04-07T11:10:16.118Z,83.43
2023-04-07T11:12:44.010Z,83.10
2023-04-07T11:15:22.062Z,82.96
2023-04-07T11:18:07.574Z,82.46
2023-04-07T11:20:46.305Z,81.66
2023-04-07T11:23:16.837Z,80.70
2023-04-07T11:25:45.033Z,80.48
2023-04-07T11:28:15.191Z,79.41
2023-04-07T11:30:52.859Z,79.01
2023-04-07T11:33:30.843Z,78.87
2023-04-07T11:35:59.285Z,78.67
2023-04-07T11:38:28.014Z,78.95
2023-04-07T11:40:55.899Z,79.05
2023-04-07T11:43:22.867Z,78.53
2023-04-07T11:46:09.953Z,79.54
2023-04-07T11:48:38.073Z,80.48
2023-04-07T11:51:05.230Z,81.22
2023-04-07T11:53:38.306Z,82.24
2023-04-07T11:56:10.146Z,85.15
2023-04-07T11:58:37.268Z,86.74
2023-04-07T12:01:09.314Z,87.97
2023-04-07T12:03:37.162Z,88.45
2023-04-07T12:06:05.095Z,89.00
2023-04-07T12:08:38.650Z,89.62
2023-04-07T12:11:05.567Z,89.94
2023-04-07T12:13:32.154Z,90.17
2023-04-07T12:15:59.910Z,90.85
2023-04-07T12:18:27.120Z,90.52
2023-04-07T12:20:53.632Z,90.86
2023-04-07T12:23:20.443Z,90.93
2023-04-07T12:25:47.220Z,90.97
2023-04-07T12:28:13.787Z,90.77
2023-04-07T12:30:40.583Z,91.11
2023-04-07T12:33:07.249Z,90.64
2023-04-07T12:35:33.854Z,90.98
2023-04-07T12:38:00.630Z,90.65
2023-04-07T12:40:27.327Z,90.17
2023-04-07T12:42:53.879Z,90.58
2023-04-07T12:45:20.735Z,90.46
2023-04-07T12:47:47.391Z,90.84
2023-04-07T12:50:14.276Z,90.93
2023-04-07T12:52:41.292Z,90.59
2023-04-07T12:55:08.349Z,90.71
2023-04-07T12:57:34.914Z,91.14
2023-04-07T13:00:01.587Z,90.74
2023-04-07T13:02:28.243Z,91.03
2023-04-07T13:04:54.948Z,91.19
2023-04-07T13:07:22.178Z,91.17
2023-04-07T13:09:48.640Z,90.79
2023-04-07T13:12:15.539Z,90.71
2023-04-07T13:14:52.721Z,88.00
2023-04-07T13:17:23.933Z,88.81
2023-04-07T13:19:50.851Z,87.57
2023-04-07T13:22:21.510Z,86.52
2023-04-07T13:24:48.612Z,87.25
2023-04-07T13:27:15.794Z,86.87
2023-04-07T13:29:42.251Z,87.06
2023-04-07T13:32:10.574Z,87.36
2023-04-07T13:34:37.369Z,87.64
2023-04-07T13:37:04.915Z,86.79
2023-04-07T13:39:32.341Z,85.22
2023-04-07T13:41:59.166Z,84.81
2023-04-07T13:44:27.337Z,85.26
2023-04-07T13:46:54.881Z,84.06
2023-04-07T13:49:22.512Z,83.93
2023-04-07T13:51:49.197Z,83.44
2023-04-07T13:54:17.254Z,82.01
2023-04-07T13:56:44.386Z,81.66
2023-04-07T13:59:11.235Z,81.12
2023-04-07T14:01:39.411Z,82.34
2023-04-07T14:04:07.048Z,80.86
2023-04-07T14:06:33.899Z,80.08
2023-04-07T14:09:01.139Z,79.08
2023-04-07T14:11:28.353Z,79.15
2023-04-07T14:13:57.087Z,77.60
2023-04-07T14:16:23.868Z,76.82
2023-04-07T14:18:51.765Z,76.33
2023-04-07T14:21:18.304Z,77.51
2023-04-07T14:23:44.943Z,77.00
2023-04-07T14:26:12.504Z,75.34
2023-04-07T14:28:39.231Z,73.70
2023-04-07T14:31:06.093Z,72.49
2023-04-07T14:33:32.742Z,71.25
2023-04-07T14:35:59.782Z,71.29
2023-04-07T14:38:27.348Z,71.75
2023-04-07T14:40:54.100Z,71.63
2023-04-07T14:43:20.663Z,72.28
2023-04-07T14:45:47.228Z,72.51
2023-04-07T14:48:14.107Z,72.65
2023-04-07T14:50:41.249Z,73.74
2023-04-07T14:53:07.816Z,73.11
2023-04-07T14:55:34.746Z,72.41
2023-04-07T14:58:01.229Z,73.12
2023-04-07T15:00:28.808Z,73.05
2023-04-07T15:02:55.897Z,72.95
2023-04-07T15:05:23.006Z,71.42
2023-04-07T15:07:52.627Z,71.74
2023-04-07T15:10:19.827Z,70.42
2023-04-07T15:12:47.439Z,70.04
2023-04-07T15:15:14.301Z,69.83
2023-04-07T15:17:44.431Z,70.02
2023-04-07T15:20:12.873Z,70.06
2023-04-07T15:22:39.669Z,70.13
2023-04-07T15:25:06.763Z,69.83
2023-04-07T15:27:33.338Z,70.51
2023-04-07T15:30:00.578Z,70.15
2023-04-07T15:32:27.403Z,70.43
2023-04-07T15:34:54.012Z,69.80
2023-04-07T15:37:20.768Z,70.01
2023-04-07T15:39:48.575Z,70.02
2023-04-07T15:42:15.691Z,70.06
2023-04-07T15:44:42.259Z,70.18
2023-04-07T15:47:09.427Z,69.99
2023-04-07T15:49:38.933Z,70.04
2023-04-07T15:52:05.909Z,69.76
2023-04-07T15:54:32.690Z,69.24
2023-04-07T15:56:59.587Z,69.22
2023-04-07T15:59:26.601Z,69.19
2023-04-07T16:01:53.647Z,68.09
2023-04-07T16:04:20.673Z,67.96
2023-04-07T16:06:47.227Z,67.99
2023-04-07T16:09:13.784Z,68.69
2023-04-07T16:11:40.408Z,68.52
2023-04-07T16:14:09.068Z,69.23
2023-04-07T16:16:37.105Z,69.77
2023-04-07T16:19:04.707Z,69.57
2023-04-07T16:21:31.492Z,69.69
2023-04-07T16:23:59.806Z,69.70
2023-04-07T16:26:26.393Z,69.42
2023-04-07T16:28:52.991Z,68.99
2023-04-07T16:31:19.755Z,68.19
2023-04-07T16:33:46.370Z,68.18
2023-04-07T16:36:13.196Z,68.18
2023-04-07T16:38:39.732Z,68.39
2023-04-07T16:41:07.585Z,68.70
2023-04-07T16:43:34.169Z,68.57
2023-04-07T16:46:01.114Z,68.49
2023-04-07T16:48:28.349Z,67.38
2023-04-07T16:50:54.890Z,67.07
2023-04-07T16:53:21.863Z,67.46
2023-04-07T16:55:48.554Z,67.20
2023-04-07T16:58:18.999Z,67.29
2023-04-07T17:00:46.351Z,66.38
2023-04-07T17:03:14.678Z,66.01
2023-04-07T17:05:41.574Z,65.96
2023-04-07T17:08:08.136Z,65.80
2023-04-07T17:10:34.695Z,66.37
2023-04-07T17:13:01.324Z,66.17
2023-04-07T17:15:27.874Z,66.70
2023-04-07T17:17:54.852Z,67.14
2023-04-07T17:20:22.718Z,67.40
2023-04-07T17:22:49.450Z,67.69
2023-04-07T17:25:18.473Z,68.39
2023-04-07T17:27:47.696Z,68.02
2023-04-07T17:30:14.375Z,68.68
2023-04-07T17:32:41.512Z,68.65
2023-04-07T17:35:08.364Z,68.44
2023-04-07T17:37:35.080Z,69.09
2023-04-07T17:40:01.780Z,69.70
2023-04-07T17:42:28.373Z,69.65
2023-04-07T17:44:55.849Z,69.77
2023-04-07T17:47:22.331Z,70.19
2023-04-07T17:49:49.206Z,70.19
2023-04-07T17:52:16.560Z,70.34
2023-04-07T17:54:43.145Z,71.01
2023-04-07T17:57:09.724Z,71.01
2023-04-07T17:59:36.417Z,71.16
2023-04-07T18:02:08.878Z,71.19
2023-04-07T18:04:37.425Z,71.12
2023-04-07T18:07:04.837Z,71.37
2023-04-07T18:09:31.496Z,71.37
2023-04-07T18:11:58.544Z,71.45
2023-04-07T18:14:26.046Z,71.45
2023-04-07T18:16:54.602Z,71.43
2023-04-07T18:19:24.701Z,71.51
2023-04-07T18:21:53.189Z,71.35
2023-04-07T18:24:21.006Z,71.28
2023-04-07T18:26:47.866Z,71.56
2023-04-07T18:29:14.903Z,70.97
2023-04-07T18:31:44.839Z,71.13
2023-04-07T18:34:11.721Z,70.71
2023-04-07T18:36:40.843Z,71.10
2023-04-07T18:39:07.707Z,71.52
2023-04-07T18:41:34.390Z,71.61
2023-04-07T18:44:00.958Z,71.92
2023-04-07T18:46:27.802Z,71.96
2023-04-07T18:48:54.381Z,71.99
2023-04-07T18:51:20.915Z,72.76
2023-04-07T18:53:47.832Z,72.31
2023-04-07T18:56:15.158Z,72.42
2023-04-07T18:58:44.921Z,72.43
2023-04-07T19:01:13.147Z,72.64
2023-04-07T19:03:40.849Z,72.28
2023-04-07T19:06:07.732Z,72.09
2023-04-07T19:08:35.060Z,72.17
2023-04-07T19:11:01.740Z,72.38
2023-04-07T19:13:28.305Z,72.42
2023-04-07T19:15:55.782Z,72.56
2023-04-07T19:18:22.966Z,72.24
2023-04-07T19:20:49.563Z,72.42
2023-04-07T19:23:16.072Z,72.65
2023-04-07T19:25:45.090Z,73.11
2023-04-07T19:28:12.506Z,73.44
2023-04-07T19:30:39.185Z,73.42
2023-04-07T19:33:07.067Z,73.68
2023-04-07T19:35:34.252Z,73.70
2023-04-07T19:38:01.201Z,74.10
2023-04-07T19:40:28.023Z,74.08
2023-04-07T19:42:56.244Z,74.08
2023-04-07T19:45:22.922Z,74.59
2023-04-07T19:50:16.559Z,74.88
2023-04-07T19:52:45.073Z,74.91
2023-04-07T19:55:12.940Z,75.02
2023-04-07T19:57:40.481Z,75.62
2023-04-07T20:00:09.159Z,75.46
2023-04-07T20:02:36.696Z,75.67
2023-04-07T20:05:05.228Z,75.51
2023-04-07T20:07:32.082Z,75.16
2023-04-07T20:09:58.791Z,75.11
2023-04-07T20:12:25.993Z,74.77
2023-04-07T20:14:52.534Z,75.24
2023-04-07T20:17:19.695Z,74.12
2023-04-07T20:19:47.118Z,73.72
2023-04-07T20:22:13.662Z,73.76
2023-04-07T20:24:40.472Z,73.02
2023-04-07T20:27:07.111Z,72.96
2023-04-07T20:29:33.611Z,72.59
2023-04-07T20:32:00.347Z,72.08
2023-04-07T20:34:26.840Z,72.13
2023-04-07T20:36:53.668Z,71.78
2023-04-07T20:39:20.335Z,71.76
2023-04-07T20:41:46.974Z,71.89
2023-04-07T20:44:13.636Z,71.73
2023-04-07T20:46:40.686Z,71.73
2023-04-07T20:49:07.947Z,71.71
2023-04-07T20:51:36.716Z,71.90
2023-04-07T20:54:04.402Z,72.31
2023-04-07T20:56:31.815Z,72.19
2023-04-07T20:58:58.355Z,72.17
2023-04-07T21:01:24.861Z,71.78
2023-04-07T21:03:52.882Z,71.91
2023-04-07T21:06:19.696Z,72.29
2023-04-07T21:08:46.561Z,71.93
2023-04-07T21:11:13.153Z,72.20
2023-04-07T21:13:39.647Z,71.61
2023-04-07T21:16:06.293Z,72.06
2023-04-07T21:18:33.537Z,71.24
2023-04-07T21:21:02.051Z,71.59
2023-04-07T21:23:31.316Z,71.60
2023-04-07T21:26:03.319Z,72.10
2023-04-07T21:28:29.963Z,72.85
2023-04-07T21:30:56.899Z,73.50
2023-04-07T21:33:23.706Z,73.31
2023-04-07T21:35:51.324Z,73.44
2023-04-07T21:38:17.990Z,73.63
2023-04-07T21:40:44.529Z,73.62
2023-04-07T21:43:12.351Z,74.02
2023-04-07T21:45:39.402Z,73.79
2023-04-07T21:48:06.952Z,74.22
2023-04-07T21:50:33.919Z,74.15
2023-04-07T21:53:01.111Z,74.36
2023-04-07T21:55:27.858Z,73.69
2023-04-07T21:57:54.810Z,72.86
2023-04-07T22:00:21.914Z,73.69
2023-04-07T22:02:49.780Z,73.64
2023-04-07T22:05:17.003Z,73.50
2023-04-07T22:07:45.601Z,73.40
2023-04-07T22:10:12.756Z,72.78
2023-04-07T22:12:39.545Z,72.83
2023-04-07T22:15:07.382Z,72.56
2023-04-07T22:17:34.410Z,72.40
2023-04-07T22:20:01.073Z,72.10
2023-04-07T22:22:30.520Z,72.28
2023-04-07T22:24:57.136Z,72.23
2023-04-07T22:27:23.794Z,72.20
2023-04-07T22:29:50.476Z,71.45
2023-04-07T22:32:16.959Z,71.89
2023-04-07T22:34:45.564Z,71.73
2023-04-07T22:37:12.835Z,71.56
2023-04-07T22:39:39.498Z,71.65
2023-04-07T22:42:06.335Z,71.76
2023-04-07T22:44:32.873Z,71.28
2023-04-07T22:46:59.454Z,71.47
2023-04-07T22:49:26.338Z,71.45
2023-04-07T22:51:55.148Z,71.94
2023-04-07T22:54:21.637Z,71.82
2023-04-07T22:56:48.270Z,71.93
2023-04-07T22:59:14.825Z,71.47
2023-04-07T23:01:41.424Z,71.53
2023-04-07T23:04:07.933Z,71.54
2023-04-07T23:06:34.647Z,71.32
2023-04-07T23:09:01.121Z,71.57
2023-04-07T23:11:27.652Z,71.92
2023-04-07T23:13:54.308Z,71.87
2023-04-07T23:16:20.934Z,71.71
2023-04-07T23:18:47.698Z,71.75
2023-04-07T23:21:14.246Z,71.69
2023-04-07T23:23:41.111Z,71.95
2023-04-07T23:26:07.689Z,71.31
2023-04-07T23:28:34.466Z,71.86
2023-04-07T23:31:02.046Z,72.16
2023-04-07T23:33:31.588Z,72.07
2023-04-07T23:35:58.619Z,72.22
2023-04-07T23:38:25.941Z,71.84
2023-04-07T23:40:53.335Z,71.96
2023-04-07T23:43:20.177Z,72.49
2023-04-07T23:45:46.750Z,72.22
2023-04-07T23:48:13.382Z,71.96
2023-04-07T23:50:40.183Z,72.28
2023-04-07T23:53:06.832Z,72.22
2023-04-07T23:55:33.523Z,72.03
2023-04-07T23:58:00.441Z,72.28
